Time;durP1;ratioP1;P1;durP2;ratioP2;P2;SDS_P1;SDS_P2;PMS_P1;PMS_P2;Temp;Humidity;BMP_temperature;BMP_pressure;BME280_temperature;BME280_humidity;BME280_pressure;Samples;Min_cycle;Max_cycle;Signal;HPM_P1;HPM_P2
2023/09/07 00:00:10;;;;;;;0.50;0.50;;;;;;;;;;1036920;28;20022;-74
2023/09/07 00:00:41;;;;;;;1.15;0.75;;;;;;;;;;1037991;28;20123;-74
2023/09/07 00:01:12;;;;;;;5.18;1.70;;;;;;;;;;1037965;28;20052;-74
2023/09/07 00:01:43;;;;;;;0.10;0.10;;;;;;;;;;1034857;28;20120;-74
2023/09/07 00:02:13;;;;;;;0.35;0.35;;;;;;;;;;1035413;28;20514;-74
2023/09/07 00:02:44;;;;;;;0.90;0.82;;;;;;;;;;1039852;28;20519;-74
2023/09/07 00:03:14;;;;;;;0.20;0.20;;;;;;;;;;1039974;28;20072;-74
2023/09/07 00:03:45;;;;;;;4.30;1.38;;;;;;;;;;1042223;28;20030;-74
2023/09/07 00:04:15;;;;;;;0.80;0.80;;;;;;;;;;1041901;28;20021;-74
2023/09/07 00:04:45;;;;;;;1.10;1.02;;;;;;;;;;1041879;28;20029;-74
2023/09/07 00:05:16;;;;;;;1.02;0.98;;;;;;;;;;1041628;28;20108;-74
2023/09/07 00:05:47;;;;;;;0.45;0.45;;;;;;;;;;1037807;28;20006;-73
2023/09/07 00:06:17;;;;;;;9.02;2.97;;;;;;;;;;1037754;28;20421;-74
2023/09/07 00:06:49;;;;;;;1.45;1.33;;;;;;;;;;1038052;28;20021;-74
2023/09/07 00:07:19;;;;;;;2.28;1.42;;;;;;;;;;1038075;28;20025;-74
2023/09/07 00:07:50;;;;;;;0.10;0.10;;;;;;;;;;1037268;28;20029;-74
2023/09/07 00:08:20;;;;;;;0.90;0.68;;;;;;;;;;1038363;28;20026;-74
2023/09/07 00:08:51;;;;;;;1.52;1.42;;;;;;;;;;1038339;28;20022;-74
2023/09/07 00:09:23;;;;;;;3.08;1.58;;;;;;;;;;1038154;28;20017;-74
2023/09/07 00:09:53;;;;;;;0.32;0.32;;;;;;;;;;1037783;28;20021;-74
2023/09/07 00:10:25;;;;;;;1.55;0.98;;;;;;;;;;1037856;28;20365;-74
2023/09/07 00:11:02;;;;;;;1.65;0.90;;;;;;;;;;1037803;28;20472;-74
2023/09/07 00:11:32;;;;;;;2.97;1.27;;;;;;;;;;1037975;28;20477;-74
2023/09/07 00:12:03;;;;;;;1.75;0.55;;;;;;;;;;1037275;28;20781;-74
2023/09/07 00:12:33;;;;;;;1.30;1.20;;;;;;;;;;1034484;28;20030;-74
2023/09/07 00:13:04;;;;;;;0.43;0.43;;;;;;;;;;1033489;28;20056;-74
2023/09/07 00:13:35;;;;;;;0.57;0.38;;;;;;;;;;1033767;28;20034;-74
2023/09/07 00:14:05;;;;;;;1.30;1.20;;;;;;;;;;1037407;28;20091;-73
2023/09/07 00:14:36;;;;;;;0.63;0.57;;;;;;;;;;1038353;28;20032;-74
2023/09/07 00:15:06;;;;;;;7.40;2.05;;;;;;;;;;1038277;28;20049;-74
2023/09/07 00:15:37;;;;;;;0.85;0.68;;;;;;;;;;1038159;28;20462;-74
2023/09/07 00:16:08;;;;;;;4.00;3.50;;;;;;;;;;1037545;28;20473;-74
2023/09/07 00:16:39;;;;;;;9.15;1.25;;;;;;;;;;1037827;28;20529;-74
2023/09/07 00:17:09;;;;;;;1.90;1.80;;;;;;;;;;1037909;28;20034;-74
2023/09/07 00:17:40;;;;;;;1.73;1.63;;;;;;;;;;1038272;28;20021;-74
2023/09/07 00:18:10;;;;;;;0.20;0.20;;;;;;;;;;1038101;28;20021;-74
2023/09/07 00:18:41;;;;;;;1.08;0.98;;;;;;;;;;1038305;28;20473;-74
2023/09/07 00:19:11;;;;;;;0.20;0.20;;;;;;;;;;1037752;28;20014;-74
2023/09/07 00:19:42;;;;;;;1.52;1.42;;;;;;;;;;1037813;28;20042;-74
2023/09/07 00:20:14;;;;;;;0.77;0.77;;;;;;;;;;1037878;28;20101;-74
2023/09/07 00:20:44;;;;;;;1.52;1.45;;;;;;;;;;1038093;28;20025;-74
2023/09/07 00:21:15;;;;;;;0.75;0.65;;;;;;;;;;1037848;28;20025;-74
2023/09/07 00:21:45;;;;;;;1.88;1.27;;;;;;;;;;1037703;28;20034;-73
2023/09/07 00:22:16;;;;;;;1.08;1.08;;;;;;;;;;1038020;28;20489;-74
2023/09/07 00:22:46;;;;;;;0.80;0.80;;;;;;;;;;1037494;28;21143;-74
2023/09/07 00:23:17;;;;;;;0.90;0.88;;;;;;;;;;1037944;28;20476;-74
2023/09/07 00:23:47;;;;;;;0.55;0.55;;;;;;;;;;1037690;28;20050;-74
2023/09/07 00:24:18;;;;;;;0.40;0.40;;;;;;;;;;1038106;28;20112;-74
2023/09/07 00:24:49;;;;;;;0.57;0.50;;;;;;;;;;1037170;28;20030;-74
2023/09/07 00:25:20;;;;;;;0.65;0.65;;;;;;;;;;1038320;28;20021;-73
2023/09/07 00:25:50;;;;;;;1.10;1.10;;;;;;;;;;1038015;28;20470;-74
2023/09/07 00:26:21;;;;;;;1.50;1.05;;;;;;;;;;1038286;28;20025;-74
2023/09/07 00:26:51;;;;;;;2.17;2.00;;;;;;;;;;1041757;28;20021;-74
2023/09/07 00:27:22;;;;;;;0.20;0.20;;;;;;;;;;1037459;28;20053;-74
2023/09/07 00:27:53;;;;;;;0.28;0.28;;;;;;;;;;1037074;28;20110;-74
2023/09/07 00:28:24;;;;;;;0.45;0.45;;;;;;;;;;1037729;28;20462;-74
2023/09/07 00:28:54;;;;;;;0.35;0.35;;;;;;;;;;1033922;28;20038;-73
2023/09/07 00:29:24;;;;;;;0.10;0.10;;;;;;;;;;1037890;28;20022;-74
2023/09/07 00:29:55;;;;;;;0.47;0.47;;;;;;;;;;1037787;28;20028;-74
2023/09/07 00:30:27;;;;;;;3.13;1.95;;;;;;;;;;1037381;28;20028;-74
2023/09/07 00:30:57;;;;;;;1.40;1.25;;;;;;;;;;1037721;28;20029;-74
2023/09/07 00:31:28;;;;;;;1.25;1.00;;;;;;;;;;1037957;28;20044;-74
2023/09/07 00:31:58;;;;;;;0.60;0.45;;;;;;;;;;1037741;28;20112;-74
2023/09/07 00:32:29;;;;;;;1.95;1.85;;;;;;;;;;1037604;28;20437;-74
2023/09/07 00:32:59;;;;;;;1.13;1.05;;;;;;;;;;1037973;28;20091;-74
2023/09/07 00:33:30;;;;;;;1.23;1.13;;;;;;;;;;1038304;28;20026;-74
2023/09/07 00:34:00;;;;;;;0.10;0.10;;;;;;;;;;1037924;28;20109;-73
2023/09/07 00:34:30;;;;;;;0.57;0.47;;;;;;;;;;1038055;28;20115;-73
2023/09/07 00:35:01;;;;;;;3.42;0.63;;;;;;;;;;1037752;28;20021;-73
2023/09/07 00:35:31;;;;;;;0.65;0.65;;;;;;;;;;1037917;28;20439;-73
2023/09/07 00:36:03;;;;;;;1.08;0.85;;;;;;;;;;1037748;28;20018;-73
2023/09/07 00:36:33;;;;;;;1.02;1.02;;;;;;;;;;1038404;28;20030;-74
2023/09/07 00:37:03;;;;;;;11.90;1.55;;;;;;;;;;1038260;28;20112;-74
2023/09/07 00:37:34;;;;;;;2.35;2.17;;;;;;;;;;1038043;28;20021;-74
2023/09/07 00:38:04;;;;;;;0.20;0.20;;;;;;;;;;1037427;28;20035;-74
2023/09/07 00:38:35;;;;;;;1.60;0.73;;;;;;;;;;1038336;28;20127;-74
2023/09/07 00:39:05;;;;;;;3.83;1.30;;;;;;;;;;1037917;28;20049;-74
2023/09/07 00:39:36;;;;;;;2.85;2.22;;;;;;;;;;1037422;28;20032;-74
2023/09/07 00:40:08;;;;;;;0.20;0.20;;;;;;;;;;1038210;28;20024;-74
2023/09/07 00:40:42;;;;;;;1.33;0.75;;;;;;;;;;1037839;28;20367;-74
2023/09/07 00:41:12;;;;;;;0.85;0.75;;;;;;;;;;1036642;28;20018;-74
2023/09/07 00:41:43;;;;;;;1.23;0.65;;;;;;;;;;1038458;28;20492;-74
2023/09/07 00:42:13;;;;;;;0.40;0.40;;;;;;;;;;1037414;28;20041;-73
2023/09/07 00:42:44;;;;;;;5.53;2.17;;;;;;;;;;1037677;28;20022;-74
2023/09/07 00:43:14;;;;;;;15.13;1.55;;;;;;;;;;1038172;28;20025;-74
2023/09/07 00:43:45;;;;;;;2.10;2.00;;;;;;;;;;1038226;28;20080;-74
2023/09/07 00:44:15;;;;;;;3.13;2.38;;;;;;;;;;1037938;28;20037;-74
2023/09/07 00:44:48;;;;;;;3.63;1.65;;;;;;;;;;1038055;28;20045;-74
2023/09/07 00:45:18;;;;;;;1.73;1.63;;;;;;;;;;1037199;28;20045;-74
2023/09/07 00:45:49;;;;;;;2.53;1.80;;;;;;;;;;1037795;28;20076;-74
2023/09/07 00:46:21;;;;;;;1.35;0.47;;;;;;;;;;1037154;28;20028;-74
2023/09/07 00:46:52;;;;;;;0.45;0.45;;;;;;;;;;1038045;28;20053;-74
2023/09/07 00:47:22;;;;;;;2.30;1.48;;;;;;;;;;1037740;28;20370;-74
2023/09/07 00:47:53;;;;;;;0.65;0.65;;;;;;;;;;1037197;28;20029;-74
2023/09/07 00:48:23;;;;;;;5.28;0.98;;;;;;;;;;1037615;28;20026;-74
2023/09/07 00:48:54;;;;;;;3.20;2.35;;;;;;;;;;1037951;28;20018;-74
2023/09/07 00:49:25;;;;;;;1.00;0.98;;;;;;;;;;1037873;28;20117;-74
2023/09/07 00:49:56;;;;;;;3.17;1.92;;;;;;;;;;1038002;28;20021;-74
2023/09/07 00:50:26;;;;;;;0.40;0.40;;;;;;;;;;1037679;28;20018;-74
2023/09/07 00:50:57;;;;;;;1.55;1.15;;;;;;;;;;1037666;28;20028;-74
2023/09/07 00:51:27;;;;;;;4.28;1.88;;;;;;;;;;1037940;28;20024;-73
2023/09/07 00:51:58;;;;;;;0.55;0.55;;;;;;;;;;1037811;28;20044;-73
2023/09/07 00:52:28;;;;;;;4.57;1.38;;;;;;;;;;1037530;28;20395;-74
2023/09/07 00:52:59;;;;;;;3.38;2.42;;;;;;;;;;1037312;28;20029;-73
2023/09/07 00:53:30;;;;;;;15.15;0.68;;;;;;;;;;1037607;28;20517;-73
2023/09/07 00:54:01;;;;;;;1.58;1.48;;;;;;;;;;1037466;28;20044;-74
2023/09/07 00:54:31;;;;;;;1.42;1.13;;;;;;;;;;1037242;28;20470;-74
2023/09/07 00:55:04;;;;;;;0.60;0.55;;;;;;;;;;1036761;28;20026;-74
2023/09/07 00:55:35;;;;;;;7.80;1.73;;;;;;;;;;1037949;28;20405;-74
2023/09/07 00:56:06;;;;;;;3.95;2.33;;;;;;;;;;1037468;28;20028;-74
2023/09/07 00:56:37;;;;;;;0.30;0.30;;;;;;;;;;1041926;28;20445;-74
2023/09/07 00:57:07;;;;;;;1.70;1.63;;;;;;;;;;1041584;28;20035;-74
2023/09/07 00:57:39;;;;;;;0.20;0.20;;;;;;;;;;1041225;28;20025;-74
2023/09/07 00:58:11;;;;;;;1.35;1.17;;;;;;;;;;1041139;28;20533;-74
2023/09/07 00:58:42;;;;;;;2.55;2.35;;;;;;;;;;1037711;28;20429;-74
2023/09/07 00:59:13;;;;;;;1.42;1.33;;;;;;;;;;1037945;28;20053;-73
2023/09/07 00:59:43;;;;;;;1.00;0.88;;;;;;;;;;1036766;28;20040;-74
2023/09/07 01:00:14;;;;;;;12.98;2.22;;;;;;;;;;1036865;28;20029;-74
2023/09/07 01:00:44;;;;;;;3.03;0.43;;;;;;;;;;1035912;28;20060;-74
2023/09/07 01:01:15;;;;;;;0.20;0.20;;;;;;;;;;1037708;28;20093;-74
2023/09/07 01:01:45;;;;;;;3.10;1.98;;;;;;;;;;1041526;28;20585;-74
2023/09/07 01:02:16;;;;;;;2.17;2.03;;;;;;;;;;1037581;28;20026;-74
2023/09/07 01:02:46;;;;;;;2.17;1.17;;;;;;;;;;1037594;28;20124;-74
2023/09/07 01:03:17;;;;;;;0.40;0.40;;;;;;;;;;1036723;28;20128;-74
2023/09/07 01:03:47;;;;;;;0.30;0.30;;;;;;;;;;1040435;28;20025;-75
2023/09/07 01:04:18;;;;;;;1.48;1.38;;;;;;;;;;1041400;28;20029;-74
2023/09/07 01:04:48;;;;;;;1.40;1.30;;;;;;;;;;1040447;28;20603;-74
2023/09/07 01:05:21;;;;;;;0.45;0.45;;;;;;;;;;1036010;28;20496;-74
2023/09/07 01:06:10;;;;;;;3.25;1.70;;;;;;;;;;1037338;28;20025;-74
2023/09/07 01:06:45;;;;;;;2.47;0.68;;;;;;;;;;1037380;28;20123;-74
2023/09/07 01:07:23;;;;;;;3.30;0.73;;;;;;;;;;1038702;28;20024;-73
2023/09/07 01:07:57;;;;;;;0.30;0.30;;;;;;;;;;1037046;28;20118;-74
2023/09/07 01:08:31;;;;;;;2.80;1.73;;;;;;;;;;1037403;28;20524;-74
2023/09/07 01:09:07;;;;;;;0.10;0.10;;;;;;;;;;1032909;28;20038;-74
2023/09/07 01:09:40;;;;;;;1.52;1.42;;;;;;;;;;1030760;28;20029;-74
2023/09/07 01:10:10;;;;;;;2.13;1.33;;;;;;;;;;1026554;28;20070;-74
2023/09/07 01:10:41;;;;;;;0.30;0.30;;;;;;;;;;1032342;28;20022;-73
2023/09/07 01:11:15;;;;;;;1.00;0.98;;;;;;;;;;1030950;28;20027;-73
2023/09/07 01:11:45;;;;;;;3.15;1.35;;;;;;;;;;1032864;28;20136;-75
2023/09/07 01:12:16;;;;;;;0.38;0.38;;;;;;;;;;1036890;28;20546;-74
2023/09/07 01:12:46;;;;;;;0.68;0.68;;;;;;;;;;1036959;28;20022;-73
2023/09/07 01:13:18;;;;;;;0.30;0.30;;;;;;;;;;1036523;28;20136;-74
2023/09/07 01:13:49;;;;;;;3.17;1.35;;;;;;;;;;1038099;28;20532;-74
2023/09/07 01:14:19;;;;;;;0.43;0.43;;;;;;;;;;1037441;28;20030;-74
2023/09/07 01:14:50;;;;;;;0.45;0.38;;;;;;;;;;1038644;28;20052;-74
2023/09/07 01:15:20;;;;;;;0.77;0.77;;;;;;;;;;1041613;28;20124;-74
2023/09/07 01:15:51;;;;;;;1.40;1.30;;;;;;;;;;1040703;28;20052;-74
2023/09/07 01:16:21;;;;;;;0.77;0.77;;;;;;;;;;1041351;28;20036;-74
2023/09/07 01:16:52;;;;;;;2.33;1.70;;;;;;;;;;1043293;28;20694;-74
2023/09/07 01:17:23;;;;;;;0.38;0.38;;;;;;;;;;1043163;28;20058;-74
2023/09/07 01:17:54;;;;;;;1.80;1.70;;;;;;;;;;1041671;28;20029;-74
2023/09/07 01:18:25;;;;;;;0.82;0.82;;;;;;;;;;1043080;28;20500;-75
2023/09/07 01:18:55;;;;;;;0.40;0.40;;;;;;;;;;1037477;28;20067;-74
2023/09/07 01:19:26;;;;;;;0.30;0.30;;;;;;;;;;1037612;28;20108;-74
2023/09/07 01:19:59;;;;;;;0.30;0.30;;;;;;;;;;1037264;28;20465;-74
2023/09/07 01:20:30;;;;;;;1.80;1.70;;;;;;;;;;1041205;28;20041;-74
2023/09/07 01:21:03;;;;;;;0.20;0.20;;;;;;;;;;1040333;28;20393;-74
2023/09/07 01:21:35;;;;;;;0.25;0.25;;;;;;;;;;1041080;28;20330;-74
2023/09/07 01:22:08;;;;;;;0.52;0.52;;;;;;;;;;1035794;28;20494;-74
2023/09/07 01:22:39;;;;;;;2.70;1.75;;;;;;;;;;1033435;28;20461;-74
2023/09/07 01:23:10;;;;;;;0.25;0.25;;;;;;;;;;1032258;28;20034;-74
2023/09/07 01:23:42;;;;;;;0.57;0.57;;;;;;;;;;1033766;28;20081;-74
2023/09/07 01:24:14;;;;;;;0.20;0.20;;;;;;;;;;1036396;28;20051;-74
2023/09/07 01:24:45;;;;;;;1.02;0.95;;;;;;;;;;1036719;28;20486;-74
2023/09/07 01:25:16;;;;;;;4.47;2.63;;;;;;;;;;1038029;28;20448;-73
2023/09/07 01:25:47;;;;;;;1.13;1.02;;;;;;;;;;1036703;28;20088;-74
2023/09/07 01:26:17;;;;;;;3.30;0.75;;;;;;;;;;1038302;28;20087;-74
2023/09/07 01:26:49;;;;;;;1.55;1.45;;;;;;;;;;1036890;28;20120;-74
2023/09/07 01:27:20;;;;;;;4.95;1.75;;;;;;;;;;1036871;28;20036;-74
2023/09/07 01:27:50;;;;;;;0.10;0.10;;;;;;;;;;1037065;28;20022;-74
2023/09/07 01:28:21;;;;;;;0.43;0.43;;;;;;;;;;1035519;28;20029;-74
2023/09/07 01:28:52;;;;;;;0.88;0.88;;;;;;;;;;1036960;28;20018;-74
2023/09/07 01:29:26;;;;;;;0.20;0.20;;;;;;;;;;1037309;28;20735;-74
2023/09/07 01:29:57;;;;;;;0.20;0.20;;;;;;;;;;1032772;28;20172;-74
2023/09/07 01:30:28;;;;;;;1.40;1.02;;;;;;;;;;1032415;28;20109;-74
2023/09/07 01:30:59;;;;;;;0.43;0.43;;;;;;;;;;1032371;28;20038;-74
2023/09/07 01:31:29;;;;;;;1.88;1.73;;;;;;;;;;1033165;28;20029;-74
2023/09/07 01:31:59;;;;;;;0.28;0.28;;;;;;;;;;1037623;28;20548;-74
2023/09/07 01:32:30;;;;;;;0.45;0.45;;;;;;;;;;1038396;28;20029;-74
2023/09/07 01:33:00;;;;;;;1.48;1.38;;;;;;;;;;1035855;28;20116;-74
2023/09/07 01:33:31;;;;;;;0.98;0.95;;;;;;;;;;1036434;28;20029;-74
2023/09/07 01:34:01;;;;;;;11.00;1.40;;;;;;;;;;1035931;28;20703;-74
2023/09/07 01:34:32;;;;;;;2.58;2.38;;;;;;;;;;1037504;28;20079;-74
2023/09/07 01:35:04;;;;;;;2.40;2.00;;;;;;;;;;1036801;28;20033;-74
2023/09/07 01:35:35;;;;;;;1.80;1.70;;;;;;;;;;1037671;28;20026;-73
2023/09/07 01:36:06;;;;;;;1.00;1.00;;;;;;;;;;1036574;28;20021;-74
2023/09/07 01:36:36;;;;;;;0.45;0.45;;;;;;;;;;1037202;28;20083;-74
2023/09/07 01:37:07;;;;;;;0.10;0.10;;;;;;;;;;1040479;28;20116;-74
2023/09/07 01:37:37;;;;;;;1.42;1.33;;;;;;;;;;1037169;28;20041;-74
2023/09/07 01:38:11;;;;;;;0.90;0.80;;;;;;;;;;1036683;28;20026;-74
2023/09/07 01:38:41;;;;;;;0.90;0.88;;;;;;;;;;1036939;28;20087;-73
2023/09/07 01:39:12;;;;;;;1.98;1.77;;;;;;;;;;1037100;28;20025;-74
2023/09/07 01:39:42;;;;;;;0.68;0.52;;;;;;;;;;1036135;28;20033;-75
2023/09/07 01:40:13;;;;;;;0.30;0.30;;;;;;;;;;1037512;28;20028;-74
2023/09/07 01:40:44;;;;;;;26.77;2.42;;;;;;;;;;1038023;28;20044;-74
2023/09/07 01:41:14;;;;;;;4.75;0.47;;;;;;;;;;1040557;28;20056;-73
2023/09/07 01:41:45;;;;;;;0.30;0.30;;;;;;;;;;1040619;28;20028;-73
2023/09/07 01:42:15;;;;;;;4.18;1.60;;;;;;;;;;1036332;28;20041;-74
2023/09/07 01:42:46;;;;;;;0.95;0.93;;;;;;;;;;1032191;28;20018;-73
2023/09/07 01:43:16;;;;;;;6.30;2.42;;;;;;;;;;1033683;28;20187;-74
2023/09/07 01:43:47;;;;;;;13.73;0.52;;;;;;;;;;1034167;28;20410;-73
2023/09/07 01:44:18;;;;;;;1.45;1.35;;;;;;;;;;1032527;28;20123;-74
2023/09/07 01:44:48;;;;;;;4.47;1.75;;;;;;;;;;1038101;28;20092;-74
2023/09/07 01:45:19;;;;;;;0.43;0.43;;;;;;;;;;1037924;28;20037;-74
2023/09/07 01:45:49;;;;;;;9.50;2.92;;;;;;;;;;1036190;28;20504;-74
2023/09/07 01:46:20;;;;;;;0.20;0.20;;;;;;;;;;1036872;28;20064;-74
2023/09/07 01:46:50;;;;;;;1.45;1.35;;;;;;;;;;1037499;28;20029;-75
2023/09/07 01:47:21;;;;;;;1.55;1.45;;;;;;;;;;1036696;28;20024;-74
2023/09/07 01:47:52;;;;;;;0.98;0.98;;;;;;;;;;1035201;28;20024;-74
2023/09/07 01:48:22;;;;;;;0.52;0.52;;;;;;;;;;1036151;28;20026;-73
2023/09/07 01:48:52;;;;;;;2.55;2.40;;;;;;;;;;1037544;28;20025;-74
2023/09/07 01:49:23;;;;;;;2.72;1.77;;;;;;;;;;1037909;28;20067;-74
2023/09/07 01:49:53;;;;;;;1.95;1.45;;;;;;;;;;1037472;28;20082;-74
2023/09/07 01:50:25;;;;;;;1.60;1.38;;;;;;;;;;1036675;28;20021;-73
2023/09/07 01:50:56;;;;;;;1.55;0.75;;;;;;;;;;1035426;28;20398;-73
2023/09/07 01:51:27;;;;;;;1.35;0.75;;;;;;;;;;1038735;28;20601;-74
2023/09/07 01:51:58;;;;;;;0.73;0.73;;;;;;;;;;1038560;28;20036;-74
2023/09/07 01:52:31;;;;;;;1.67;1.58;;;;;;;;;;1037664;28;20025;-74
2023/09/07 01:53:03;;;;;;;0.88;0.73;;;;;;;;;;1035658;28;20096;-74
2023/09/07 01:53:33;;;;;;;1.02;0.77;;;;;;;;;;1037609;28;20025;-74
2023/09/07 01:54:05;;;;;;;1.50;1.40;;;;;;;;;;1037469;28;20021;-74
2023/09/07 01:54:35;;;;;;;1.35;0.32;;;;;;;;;;1038059;28;20026;-74
2023/09/07 01:55:06;;;;;;;0.63;0.63;;;;;;;;;;1037790;28;20459;-74
2023/09/07 01:55:36;;;;;;;0.30;0.30;;;;;;;;;;1038371;28;20029;-74
2023/09/07 01:56:07;;;;;;;0.35;0.35;;;;;;;;;;1036962;28;20527;-74
2023/09/07 01:56:37;;;;;;;0.20;0.20;;;;;;;;;;1038732;28;20025;-73
2023/09/07 01:57:08;;;;;;;0.25;0.25;;;;;;;;;;1033898;28;20022;-74
2023/09/07 01:57:38;;;;;;;16.88;2.15;;;;;;;;;;1036606;28;20392;-74
2023/09/07 01:58:09;;;;;;;0.82;0.82;;;;;;;;;;1040057;28;20057;-74
2023/09/07 01:58:40;;;;;;;4.38;2.08;;;;;;;;;;1037126;28;20056;-73
2023/09/07 01:59:11;;;;;;;0.28;0.22;;;;;;;;;;1032185;28;20429;-74
2023/09/07 01:59:43;;;;;;;0.52;0.45;;;;;;;;;;1033524;28;20032;-74
2023/09/07 02:00:13;;;;;;;15.23;1.25;;;;;;;;;;1027100;28;20110;-74
2023/09/07 02:00:44;;;;;;;1.15;0.93;;;;;;;;;;1032893;28;20334;-74
2023/09/07 02:01:21;;;;;;;0.88;0.88;;;;;;;;;;1036932;28;20833;-74
2023/09/07 02:01:52;;;;;;;15.50;2.42;;;;;;;;;;1035624;28;20029;-74
2023/09/07 02:02:22;;;;;;;0.68;0.68;;;;;;;;;;1035858;28;20025;-74
2023/09/07 02:02:53;;;;;;;4.15;3.20;;;;;;;;;;1036215;28;20083;-74
2023/09/07 02:03:23;;;;;;;0.47;0.47;;;;;;;;;;1037198;28;20819;-73
2023/09/07 02:03:54;;;;;;;0.65;0.65;;;;;;;;;;1035946;28;20207;-73
2023/09/07 02:04:24;;;;;;;0.30;0.30;;;;;;;;;;1035888;28;20152;-73
2023/09/07 02:04:55;;;;;;;4.20;1.08;;;;;;;;;;1034592;28;20056;-73
2023/09/07 02:05:25;;;;;;;6.05;0.82;;;;;;;;;;1036338;28;20029;-74
2023/09/07 02:05:56;;;;;;;0.88;0.88;;;;;;;;;;1036622;28;20041;-73
2023/09/07 02:06:26;;;;;;;2.75;0.63;;;;;;;;;;1031437;28;20018;-74
2023/09/07 02:06:57;;;;;;;0.77;0.77;;;;;;;;;;1033378;28;20477;-73
2023/09/07 02:07:27;;;;;;;0.20;0.20;;;;;;;;;;1038830;28;20159;-74
2023/09/07 02:07:58;;;;;;;2.45;2.30;;;;;;;;;;1039316;28;20878;-74
2023/09/07 02:08:28;;;;;;;0.52;0.47;;;;;;;;;;1039656;28;20029;-74
2023/09/07 02:08:59;;;;;;;2.15;2.00;;;;;;;;;;1036671;28;20389;-74
2023/09/07 02:09:30;;;;;;;1.00;0.90;;;;;;;;;;1031147;28;20022;-74
2023/09/07 02:10:01;;;;;;;2.17;0.90;;;;;;;;;;1032513;28;20031;-73
2023/09/07 02:10:31;;;;;;;2.33;1.55;;;;;;;;;;1032944;28;20034;-74
2023/09/07 02:11:02;;;;;;;0.25;0.25;;;;;;;;;;1036236;28;20112;-74
2023/09/07 02:11:33;;;;;;;0.32;0.32;;;;;;;;;;1037262;28;20449;-73
2023/09/07 02:12:04;;;;;;;0.30;0.22;;;;;;;;;;1037304;28;20033;-74
2023/09/07 02:12:35;;;;;;;3.08;2.33;;;;;;;;;;1040946;28;20489;-73
2023/09/07 02:13:05;;;;;;;0.30;0.30;;;;;;;;;;1036395;28;20022;-74
2023/09/07 02:13:36;;;;;;;0.20;0.20;;;;;;;;;;1037368;28;20033;-74
2023/09/07 02:14:06;;;;;;;4.95;1.95;;;;;;;;;;1037292;28;20021;-74
2023/09/07 02:14:36;;;;;;;2.42;1.30;;;;;;;;;;1037568;28;20113;-74
2023/09/07 02:15:07;;;;;;;0.73;0.73;;;;;;;;;;1037863;28;20078;-74
2023/09/07 02:15:38;;;;;;;0.45;0.45;;;;;;;;;;1037016;28;20021;-74
2023/09/07 02:16:09;;;;;;;2.78;1.38;;;;;;;;;;1036756;28;20026;-74
2023/09/07 02:16:39;;;;;;;0.68;0.68;;;;;;;;;;1036856;28;20028;-74
2023/09/07 02:17:14;;;;;;;3.03;1.90;;;;;;;;;;1037283;28;20025;-74
2023/09/07 02:17:44;;;;;;;0.40;0.32;;;;;;;;;;1037808;28;20059;-72
2023/09/07 02:18:15;;;;;;;0.73;0.73;;;;;;;;;;1033360;28;20100;-72
2023/09/07 02:18:49;;;;;;;0.38;0.38;;;;;;;;;;1028980;28;20145;-72
2023/09/07 02:19:22;;;;;;;0.20;0.20;;;;;;;;;;1030171;28;20030;-72
2023/09/07 02:19:53;;;;;;;1.55;1.38;;;;;;;;;;1034513;28;20022;-72
2023/09/07 02:20:23;;;;;;;0.82;0.77;;;;;;;;;;1034205;28;20093;-73
2023/09/07 02:20:54;;;;;;;0.10;0.10;;;;;;;;;;1034968;28;20385;-72
2023/09/07 02:21:25;;;;;;;0.75;0.60;;;;;;;;;;1033656;28;20022;-72
2023/09/07 02:21:55;;;;;;;5.18;1.92;;;;;;;;;;1032015;28;20118;-74
2023/09/07 02:22:26;;;;;;;1.08;0.95;;;;;;;;;;1034654;28;20022;-73
2023/09/07 02:22:57;;;;;;;0.80;0.80;;;;;;;;;;1036213;28;20029;-72
2023/09/07 02:23:27;;;;;;;1.15;1.08;;;;;;;;;;1037918;28;20028;-74
2023/09/07 02:23:58;;;;;;;1.88;1.67;;;;;;;;;;1033573;28;20168;-75
2023/09/07 02:24:28;;;;;;;10.23;3.85;;;;;;;;;;1031220;28;20411;-72
2023/09/07 02:24:59;;;;;;;4.13;3.65;;;;;;;;;;1036851;28;20079;-73
2023/09/07 02:25:30;;;;;;;0.73;0.73;;;;;;;;;;1037361;28;20480;-72
2023/09/07 02:26:01;;;;;;;8.55;3.47;;;;;;;;;;1035519;28;20544;-74
2023/09/07 02:26:31;;;;;;;0.45;0.45;;;;;;;;;;1037442;28;20051;-73
2023/09/07 02:27:01;;;;;;;1.08;0.98;;;;;;;;;;1038000;28;20112;-74
2023/09/07 02:27:33;;;;;;;0.20;0.20;;;;;;;;;;1037252;28;20028;-73
2023/09/07 02:28:03;;;;;;;0.10;0.10;;;;;;;;;;1037788;28;20102;-72
2023/09/07 02:28:34;;;;;;;0.88;0.63;;;;;;;;;;1038138;28;20584;-74
2023/09/07 02:29:06;;;;;;;2.17;0.90;;;;;;;;;;1037314;28;20026;-74
2023/09/07 02:29:37;;;;;;;1.83;1.70;;;;;;;;;;1037909;28;20024;-72
2023/09/07 02:30:07;;;;;;;1.27;0.90;;;;;;;;;;1041107;28;20016;-72
2023/09/07 02:30:38;;;;;;;2.17;1.60;;;;;;;;;;1037420;28;20025;-74
2023/09/07 02:31:08;;;;;;;1.45;1.35;;;;;;;;;;1033300;28;20080;-72
2023/09/07 02:31:39;;;;;;;1.92;1.63;;;;;;;;;;1032651;28;20394;-75
2023/09/07 02:32:10;;;;;;;0.40;0.38;;;;;;;;;;1028742;28;20019;-75
2023/09/07 02:32:42;;;;;;;2.20;2.00;;;;;;;;;;1029899;28;20030;-74
2023/09/07 02:33:12;;;;;;;1.13;0.40;;;;;;;;;;1033995;28;20582;-74
2023/09/07 02:33:44;;;;;;;0.10;0.10;;;;;;;;;;1034434;28;20033;-75
2023/09/07 02:34:15;;;;;;;1.50;0.55;;;;;;;;;;1036574;28;20120;-74
2023/09/07 02:34:46;;;;;;;0.70;0.32;;;;;;;;;;1041971;28;20021;-75
2023/09/07 02:35:16;;;;;;;2.80;1.17;;;;;;;;;;1039995;28;20082;-74
2023/09/07 02:35:50;;;;;;;2.15;1.52;;;;;;;;;;1039426;28;20486;-74
2023/09/07 02:36:20;;;;;;;1.20;0.43;;;;;;;;;;1039853;28;20068;-75
2023/09/07 02:36:51;;;;;;;1.42;0.90;;;;;;;;;;1040266;28;20043;-74
2023/09/07 02:37:21;;;;;;;1.77;0.65;;;;;;;;;;1038320;28;20025;-74
2023/09/07 02:37:52;;;;;;;1.98;1.85;;;;;;;;;;1035765;28;20033;-74
2023/09/07 02:38:22;;;;;;;0.55;0.55;;;;;;;;;;1036872;28;20119;-74
2023/09/07 02:38:53;;;;;;;1.65;1.52;;;;;;;;;;1037230;28;20028;-74
2023/09/07 02:39:26;;;;;;;0.82;0.60;;;;;;;;;;1037719;28;20124;-75
2023/09/07 02:39:57;;;;;;;0.20;0.08;;;;;;;;;;1036715;28;20029;-74
2023/09/07 02:40:27;;;;;;;0.32;0.32;;;;;;;;;;1040891;28;20505;-74
2023/09/07 02:40:58;;;;;;;0.10;0.10;;;;;;;;;;1040331;28;20021;-74
2023/09/07 02:41:29;;;;;;;1.13;0.40;;;;;;;;;;1038069;28;20032;-75
2023/09/07 02:41:59;;;;;;;0.10;0.10;;;;;;;;;;1036876;28;20108;-76
2023/09/07 02:42:29;;;;;;;0.20;0.20;;;;;;;;;;1036760;28;20469;-75
2023/09/07 02:43:00;;;;;;;1.85;0.88;;;;;;;;;;1038433;28;20021;-75
2023/09/07 02:43:30;;;;;;;0.15;0.13;;;;;;;;;;1041764;28;20403;-74
2023/09/07 02:44:01;;;;;;;3.05;0.98;;;;;;;;;;1036181;28;20038;-75
2023/09/07 02:44:31;;;;;;;1.10;1.08;;;;;;;;;;1035550;28;20399;-74
2023/09/07 02:45:02;;;;;;;1.92;0.50;;;;;;;;;;1033139;28;20022;-76
2023/09/07 02:45:32;;;;;;;1.85;1.50;;;;;;;;;;1034969;28;20026;-75
2023/09/07 02:46:03;;;;;;;0.68;0.68;;;;;;;;;;1036332;28;20040;-74
2023/09/07 02:46:33;;;;;;;2.97;1.85;;;;;;;;;;1037253;28;20095;-76
2023/09/07 02:47:04;;;;;;;0.85;0.85;;;;;;;;;;1034848;28;20025;-74
2023/09/07 02:47:35;;;;;;;0.50;0.50;;;;;;;;;;1032677;28;20080;-75
2023/09/07 02:48:05;;;;;;;1.42;1.35;;;;;;;;;;1035344;28;20039;-73
2023/09/07 02:48:36;;;;;;;1.50;1.40;;;;;;;;;;1032701;28;20128;-74
2023/09/07 02:49:06;;;;;;;0.63;0.63;;;;;;;;;;1033280;28;20038;-75
2023/09/07 02:49:37;;;;;;;0.50;0.30;;;;;;;;;;1035118;28;20021;-75
2023/09/07 02:50:08;;;;;;;3.65;2.83;;;;;;;;;;1036430;28;20121;-73
2023/09/07 02:50:39;;;;;;;1.90;1.20;;;;;;;;;;1037852;28;20029;-75
2023/09/07 02:51:10;;;;;;;1.55;1.27;;;;;;;;;;1032898;28;20077;-73
2023/09/07 02:51:51;;;;;;;12.32;2.17;;;;;;;;;;1034391;28;20034;-74
2023/09/07 02:52:22;;;;;;;1.30;1.20;;;;;;;;;;1034115;28;20045;-73
2023/09/07 02:52:54;;;;;;;0.47;0.20;;;;;;;;;;1036272;28;20615;-74
2023/09/07 02:53:25;;;;;;;1.30;1.20;;;;;;;;;;1036593;28;20033;-73
2023/09/07 02:53:56;;;;;;;0.65;0.65;;;;;;;;;;1038798;28;21322;-75
2023/09/07 02:54:33;;;;;;;1.63;1.52;;;;;;;;;;1036947;28;20536;-74
2023/09/07 02:55:06;;;;;;;2.20;1.23;;;;;;;;;;1038442;28;20825;-75
2023/09/07 02:55:39;;;;;;;0.40;0.40;;;;;;;;;;1038834;28;20010;-73
2023/09/07 02:56:10;;;;;;;3.30;2.92;;;;;;;;;;1033015;28;20407;-73
2023/09/07 02:56:41;;;;;;;1.25;1.13;;;;;;;;;;1033368;28;20030;-73
2023/09/07 02:57:12;;;;;;;0.38;0.38;;;;;;;;;;1033658;28;20089;-73
2023/09/07 02:57:43;;;;;;;1.77;1.48;;;;;;;;;;1035959;28;20045;-73
2023/09/07 02:58:13;;;;;;;0.73;0.30;;;;;;;;;;1037255;28;20108;-73
2023/09/07 02:58:45;;;;;;;2.97;1.33;;;;;;;;;;1037463;28;20033;-74
2023/09/07 02:59:16;;;;;;;2.13;1.52;;;;;;;;;;1042996;28;20024;-73
2023/09/07 02:59:47;;;;;;;0.85;0.85;;;;;;;;;;1044100;28;20029;-74
2023/09/07 03:00:18;;;;;;;4.18;1.08;;;;;;;;;;1042374;28;20061;-74
2023/09/07 03:00:49;;;;;;;0.35;0.35;;;;;;;;;;1038219;28;20026;-74
2023/09/07 03:01:22;;;;;;;2.05;1.25;;;;;;;;;;1037388;28;20112;-74
2023/09/07 03:01:53;;;;;;;1.85;1.48;;;;;;;;;;1033258;28;20030;-73
2023/09/07 03:02:24;;;;;;;0.85;0.60;;;;;;;;;;1033322;28;20108;-74
2023/09/07 03:02:56;;;;;;;3.20;2.17;;;;;;;;;;1038756;28;20068;-74
2023/09/07 03:03:27;;;;;;;1.23;0.47;;;;;;;;;;1034661;28;20509;-74
2023/09/07 03:04:05;;;;;;;1.08;0.98;;;;;;;;;;1037517;28;20020;-73
2023/09/07 03:04:58;;;;;;;2.80;1.70;;;;;;;;;;1038740;28;20392;-73
2023/09/07 03:05:34;;;;;;;3.47;1.05;;;;;;;;;;1039842;28;20041;-73
2023/09/07 03:06:09;;;;;;;3.28;2.97;;;;;;;;;;1036621;28;21171;-73
2023/09/07 03:06:49;;;;;;;0.20;0.20;;;;;;;;;;1037265;28;20017;-73